Flight Track Log - Related Links

Times and Time Zones

All times are in EDT time to prevent confusion due to time zone crossing. See the AWE997 flight status page for this flight to view local times or setup timezone preferences in your user account.

Time Position Orientation Groundspeed Altitude Reporting Facility
EDT Latitude Longitude Course Direction KTS MPH feet Rate Location/Type
Wed 11:00:40 AM 41.9167 -87.8833 85° East 188 216 2,600  Level Chicago TRACON
Wed 11:02:00 AM 41.9500 -87.3895 90° East  Level FlightAware Approximate
Wed 11:02:27 AM 41.8247 -87.7700 137° Southeast 240 276 5,300  Level Chicago Center
Wed 11:03:00 AM 41.9387 -87.2195 96° East  Level FlightAware Approximate
Wed 11:03:29 AM 41.8219 -87.6633 92° East 286 329 7,900  Level Chicago Center
Wed 11:04:00 AM 41.9333 -87.0490 90° East  Level FlightAware Approximate
Wed 11:04:31 AM 41.8394 -87.5567 78° East 298 343 10,000  Level Chicago Center
Wed 11:05:00 AM 41.9333 -86.8783 90° East  Level FlightAware Approximate
Wed 11:05:33 AM 41.8664 -87.4297 74° East 303 349 12,500  Level Chicago Center
Wed 11:06:00 AM 41.9378 -86.7245 85° East  Level FlightAware Approximate
Wed 11:06:35 AM 41.8894 -87.3206 74° East 320 368 13,600  Level Chicago Center
Wed 11:07:38 AM 41.9183 -87.1897 73° East 360 414 14,400 1,056 Climbing Chicago Center
Wed 11:08:40 AM 41.9461 -87.0458 75° East 396 456 15,800 823 Climbing Chicago Center
Wed 11:09:42 AM 41.9469 -86.8908 90° East 414 476 16,100 919 Climbing Chicago Center
Wed 11:10:44 AM 41.9503 -86.7033 89° East 419 482 17,700 1,452 Climbing Chicago Center
Wed 11:11:46 AM 41.9522 -86.5433 89° East 426 490 19,100 1,258 Climbing Chicago Center
Wed 11:12:48 AM 41.9539 -86.3786 89° East 440 506 20,300 1,258 Climbing Chicago Center
Wed 11:13:50 AM 41.9553 -86.2125 89° East 445 512 21,700 1,306 Climbing Chicago Center
Wed 11:14:52 AM 41.9392 -86.0436 97° East 455 524 23,000 1,161 Climbing Chicago Center
Wed 11:15:54 AM 41.9244 -85.8731 97° East 458 527 24,100 1,113 Climbing Chicago Center
Wed 11:16:56 AM 41.9039 -85.6644 97° East 467 537 25,300 1,113 Climbing Chicago Center
Wed 11:17:58 AM 41.8883 -85.4858 97° East 475 547 26,400 1,008 Climbing Chicago Center
Wed 11:19:01 AM 41.8708 -85.3058 97° East 479 551 27,400 816 Climbing Chicago Center
Wed 11:20:03 AM 41.8517 -85.1244 98° East 485 558 28,100 774 Climbing Chicago Center
Wed 11:21:05 AM 41.8328 -84.9400 98° East 494 568 29,000 919 Climbing Chicago Center
Wed 11:22:07 AM 41.8139 -84.7589 98° East 491 565 30,000 919 Climbing Chicago Center
Wed 11:23:09 AM 41.7947 -84.5767 98° East 494 568 30,900 484 Climbing Chicago Center
Wed 11:24:11 AM 41.7772 -84.3953 97° East 492 566 31,000 48 Climbing Chicago Center
Wed 11:25:13 AM 41.7778 -84.1789 90° East 485 558 31,000 384 Level Chicago Center
Wed 11:26:16 AM 41.7739 -83.9858 91° East 480 552 31,800 878 Climbing Cleveland Center
Wed 11:27:16 AM 41.7583 -83.8067 97° East 480 552 32,800 1,050 Climbing Cleveland Center
Wed 11:28:16 AM 41.7172 -83.6322 107° East 485 558 33,900 1,050 Climbing Cleveland Center
Wed 11:29:16 AM 41.6736 -83.4633 109° East 485 558 34,900 550 Climbing Cleveland Center
Wed 11:30:16 AM 41.6339 -83.2919 107° East 485 558 35,000 50 Climbing Cleveland Center
Wed 11:31:16 AM 41.5978 -83.1378 107° East 485 558 35,000  Level Cleveland Center
Wed 11:32:16 AM 41.5558 -82.9639 108° East 491 565 35,000  Level Cleveland Center
Wed 11:33:16 AM 41.5111 -82.7958 110° East 486 559 35,000  Level Cleveland Center
Wed 11:34:16 AM 41.4625 -82.6058 109° East 486 559 35,000  Level Cleveland Center
Wed 11:35:16 AM 41.4197 -82.4328 108° East 486 559 35,000 50 Level Cleveland Center
Wed 11:36:16 AM 41.3764 -82.2628 109° East 486 559 35,100  Climbing Cleveland Center
Wed 11:37:16 AM 41.3392 -82.1042 107° East 486 559 35,000 -50 Descending Cleveland Center
Wed 11:38:16 AM 41.2953 -81.9344 109° East 486 559 35,000  Level Cleveland Center
Wed 11:39:16 AM 41.2492 -81.7678 110° East 481 554 35,000  Level Cleveland Center
Wed 11:40:16 AM 41.2050 -81.6042 110° East 481 554 35,000  Level Cleveland Center
Wed 11:41:16 AM 41.1625 -81.4381 109° East 481 554 35,000  Level Cleveland Center
Wed 11:42:16 AM 41.1094 -81.2556 111° Southeast 481 554 35,000 50 Level Cleveland Center
Wed 11:43:16 AM 41.0644 -81.0869 109° East 481 554 35,100 50 Climbing Cleveland Center
Wed 11:44:16 AM 41.0275 -80.9381 108° East 476 548 35,100 -50 Level Cleveland Center
Wed 11:45:16 AM 40.9864 -80.7756 108° East 471 542 35,000 -50 Descending Cleveland Center
Wed 11:46:16 AM 40.9594 -80.6022 102° East 461 531 35,000  Level Cleveland Center
Wed 11:47:16 AM 40.9072 -80.4458 114° Southeast 461 531 35,000  Level Cleveland Center
Wed 11:48:16 AM 40.8506 -80.2894 116° Southeast 467 537 35,000  Level Cleveland Center
Wed 11:49:16 AM 40.7958 -80.1333 115° Southeast 467 537 35,000  Level Cleveland Center
Wed 11:50:16 AM 40.7389 -79.9719 115° Southeast 467 537 35,000  Level Cleveland Center
Wed 11:51:16 AM 40.6836 -79.8192 115° Southeast 467 537 35,000  Level Cleveland Center
Wed 11:52:16 AM 40.6264 -79.6667 116° Southeast 461 531 35,000  Level Cleveland Center
Wed 11:53:17 AM 40.5708 -79.5089 115° Southeast 461 531 35,000  Level Cleveland Center
Wed 11:54:16 AM 40.5131 -79.3569 117° Southeast 461 531 35,000  Level Cleveland Center
Wed 11:55:16 AM 40.4756 -79.1939 107° East 461 531 35,000  Level Cleveland Center
Wed 11:56:16 AM 40.4547 -79.0250 99° East 461 531 35,000  Level Cleveland Center
Wed 11:57:16 AM 40.4333 -78.8536 99° East 468 539 35,000 -150 Level Cleveland Center
Wed 11:58:16 AM 40.4075 -78.6661 100° East 474 545 34,700 -1,300 Descending Cleveland Center
Wed 11:59:16 AM 40.3836 -78.4953 100° East 469 540 32,400 -2,418 Descending Cleveland Center
Wed 12:01:32 PM 40.3333 -78.1122 100° East 478 550 26,800 -2,265 Descending New York Center
Wed 12:02:32 PM 40.3100 -77.9492 101° East 471 542 25,000 -915 Descending New York Center
Wed 12:03:30 PM 40.3092 -77.7911 90° East 454 522 25,000 -356 Level New York Center
Wed 12:04:30 PM 40.3100 -77.6361 90° East 440 506 24,300 -836 Descending New York Center
Wed 12:05:32 PM 40.3103 -77.4836 90° East 427 491 23,300 -984 Descending New York Center
Wed 12:06:32 PM 40.3078 -77.3444 91° East 422 486 22,300 -1,068 Descending New York Center
Wed 12:07:30 PM 40.3000 -77.1831 94° East 417 480 21,200 -1,050 Descending New York Center
Wed 12:08:32 PM 40.2931 -77.0383 94° East 412 474 20,200 -934 Descending New York Center
Wed 12:09:32 PM 40.2608 -76.8964 107° East 399 459 19,300 -966 Descending New York Center
Wed 12:10:30 PM 40.2303 -76.7606 106° East 392 451 18,300 -864 Descending New York Center
Wed 12:11:30 PM 40.2081 -76.6228 102° East 387 445 17,600 -850 Descending New York Center
Wed 12:12:30 PM 40.1875 -76.4878 101° East 381 438 16,600 -1,140 Descending New York Center
Wed 12:13:31 PM 40.1706 -76.3642 100° East 375 432 15,300 -1,636 Descending New York Center
Wed 12:14:31 PM 40.1503 -76.2186 100° East 375 432 13,300 -1,835 Descending New York Center
Wed 12:15:32 PM 40.1314 -76.0867 101° East 375 432 11,600 -1,462 Descending New York Center
Wed 12:16:30 PM 40.1119 -75.9603 101° East 368 423 10,400 -1,017 Descending New York Center
Wed 12:17:30 PM 40.0958 -75.8506 101° East 336 387 9,600 -1,190 Descending New York Center
Wed 12:18:31 PM 40.0814 -75.7464 100° East 298 343 8,000 -885 Descending New York Center
Wed 12:19:32 PM 40.0756 -75.6431 94° East 298 343 7,800 -504 Descending New York Center
Wed 12:20:30 PM 40.0694 -75.5339 94° East 293 337 7,000 -407 Descending New York Center
Wed 12:21:30 PM 40.0653 -75.4278 93° East 293 337 7,000  Level New York Center
Wed 12:22:06 PM 40.0667 -75.3667 88° East 292 336 7,000  Level Philadelphia TRACON
Wed 12:23:06 PM 40.0667 -75.2667 90° East 280 322 7,000 -250 Level Philadelphia TRACON
Wed 12:24:06 PM 40.0500 -75.1667 102° East 221 254 6,500 -500 Descending Philadelphia TRACON
Wed 12:25:06 PM 40.0167 -75.1000 123° Southeast 224 258 6,000 -700 Descending Philadelphia TRACON
Wed 12:26:06 PM 40.0167 -75.0333 90° East 187 215 5,100 -500 Descending Philadelphia TRACON
Wed 12:27:06 PM 40.0000 -74.9667 108° East 193 222 5,000 -211 Descending Philadelphia TRACON
Wed 12:28:00 PM 39.9667 -74.9167 131° Southeast 191 220 4,700 -579 Descending Philadelphia TRACON
Wed 12:29:00 PM 39.9333 -74.9500 217° Southwest 178 205 3,900 -700 Descending Philadelphia TRACON
Wed 12:30:00 PM 39.9167 -75.0167 252° West 182 209 3,300 -750 Descending Philadelphia TRACON
Wed 12:31:00 PM 39.9000 -75.0667 247° West 177 204 2,400 -900 Descending Philadelphia TRACON
Wed 12:32:00 PM 39.9000 -75.1333 270° West 174 200 1,500 -850 Descending Philadelphia TRACON
Wed 12:33:00 PM 39.8833 -75.1833 247° West 147 169 700 -800 Descending Philadelphia TRACON

Login

Don't have an account? Register now (free) for customized features, flight alerts, and more!